createdAt,value
2022-09-12T00:01:16.495Z,60.33
2022-09-12T00:03:18.852Z,60.06
2022-09-12T00:05:21.821Z,60.18
2022-09-12T00:07:23.931Z,60.40
2022-09-12T00:09:26.092Z,59.99
2022-09-12T00:11:28.840Z,60.37
2022-09-12T00:13:31.019Z,60.95
2022-09-12T00:15:33.061Z,60.33
2022-09-12T00:17:36.831Z,60.23
2022-09-12T00:19:38.884Z,60.38
2022-09-12T00:21:41.951Z,60.05
2022-09-12T00:23:45.433Z,60.53
2022-09-12T00:25:48.772Z,61.14
2022-09-12T00:27:53.893Z,61.51
2022-09-12T00:29:56.242Z,60.90
2022-09-12T00:32:00.467Z,61.10
2022-09-12T00:34:05.509Z,61.21
2022-09-12T00:36:15.547Z,61.69
2022-09-12T00:38:17.933Z,62.01
2022-09-12T00:40:20.083Z,61.47
2022-09-12T00:42:22.675Z,62.01
2022-09-12T00:44:24.632Z,60.98
2022-09-12T00:46:41.309Z,61.42
2022-09-12T00:48:49.593Z,60.80
2022-09-12T00:50:53.869Z,60.65
2022-09-12T00:53:03.136Z,60.83
2022-09-12T00:55:13.378Z,60.74
2022-09-12T00:57:18.708Z,60.50
2022-09-12T00:59:37.786Z,61.74
2022-09-12T01:01:44.732Z,61.41
2022-09-12T01:03:47.796Z,61.44
2022-09-12T01:06:07.768Z,62.01
2022-09-12T01:08:12.071Z,62.00
2022-09-12T01:10:15.223Z,61.98
2022-09-12T01:12:17.866Z,61.29
2022-09-12T01:14:20.878Z,61.04
2022-09-12T01:16:22.937Z,60.97
2022-09-12T01:18:51.303Z,62.36
2022-09-12T01:21:41.947Z,62.68
2022-09-12T01:24:14.840Z,62.66
2022-09-12T01:26:50.659Z,62.49
2022-09-12T01:29:11.412Z,61.86
2022-09-12T01:31:20.222Z,62.60
2022-09-12T01:33:37.301Z,61.61
2022-09-12T01:36:09.961Z,62.89
2022-09-12T01:38:39.970Z,62.76
2022-09-12T01:41:04.038Z,62.01
2022-09-12T01:43:32.833Z,62.78
2022-09-12T01:45:46.764Z,62.34
2022-09-12T01:48:20.393Z,62.65
2022-09-12T01:50:30.457Z,61.35
2022-09-12T01:52:56.565Z,61.37
2022-09-12T01:55:25.649Z,61.88
2022-09-12T01:57:37.569Z,62.33
2022-09-12T01:59:51.461Z,62.65
2022-09-12T02:02:18.468Z,62.71
2022-09-12T02:04:33.956Z,62.33
2022-09-12T02:07:05.621Z,62.28
2022-09-12T02:09:15.363Z,62.33
2022-09-12T02:11:18.609Z,62.08
2022-09-12T02:13:38.162Z,63.33
2022-09-12T02:15:49.935Z,63.03
2022-09-12T02:17:53.757Z,62.40
2022-09-12T02:20:03.704Z,62.45
2022-09-12T02:22:10.130Z,62.32
2022-09-12T02:24:15.160Z,62.32
2022-09-12T02:26:24.086Z,62.60
2022-09-12T02:28:35.499Z,62.81
2022-09-12T02:30:48.176Z,62.40
2022-09-12T02:33:01.694Z,62.47
2022-09-12T02:35:20.191Z,62.63
2022-09-12T02:37:57.532Z,62.77
2022-09-12T02:40:00.990Z,62.31
2022-09-12T02:42:04.473Z,61.84
2022-09-12T02:44:06.694Z,61.70
2022-09-12T02:46:15.442Z,61.42
2022-09-12T02:48:17.629Z,61.36
2022-09-12T02:50:20.273Z,61.37
2022-09-12T02:52:22.685Z,61.36
2022-09-12T02:54:25.892Z,61.29
2022-09-12T02:56:30.934Z,61.15
2022-09-12T02:58:33.934Z,61.21
2022-09-12T03:00:45.338Z,61.29
2022-09-12T03:03:34.732Z,60.91
2022-09-12T03:06:01.334Z,60.40
2022-09-12T03:08:15.207Z,59.90
2022-09-12T03:10:20.586Z,59.90
2022-09-12T03:12:45.585Z,60.22
2022-09-12T03:15:06.378Z,61.02
2022-09-12T03:17:36.471Z,60.63
2022-09-12T03:19:55.131Z,61.05
2022-09-12T03:22:16.002Z,60.47
2022-09-12T03:24:18.668Z,60.49
2022-09-12T03:26:28.769Z,60.85
2022-09-12T03:28:33.383Z,60.62
2022-09-12T03:30:54.881Z,60.56
2022-09-12T03:32:57.055Z,60.94
2022-09-12T03:34:59.199Z,60.69
2022-09-12T03:37:02.921Z,61.07
2022-09-12T03:39:04.960Z,60.75
2022-09-12T03:41:07.588Z,60.37
2022-09-12T03:43:11.218Z,60.32
2022-09-12T03:45:13.321Z,60.49
2022-09-12T03:47:15.172Z,60.38
2022-09-12T03:49:17.989Z,60.49
2022-09-12T03:51:20.034Z,60.30
2022-09-12T03:53:22.299Z,60.52
2022-09-12T03:55:24.363Z,61.40
2022-09-12T03:57:26.449Z,61.50
2022-09-12T03:59:28.397Z,61.26
2022-09-12T04:01:31.106Z,60.90
2022-09-12T04:03:33.367Z,61.19
2022-09-12T04:05:38.476Z,60.39
2022-09-12T04:07:40.776Z,60.58
2022-09-12T04:09:43.057Z,60.19
2022-09-12T04:11:47.500Z,60.30
2022-09-12T04:13:49.909Z,60.39
2022-09-12T04:15:59.570Z,60.20
2022-09-12T04:18:05.697Z,60.23
2022-09-12T04:20:08.445Z,60.32
2022-09-12T04:22:10.410Z,60.26
2022-09-12T04:24:12.750Z,60.26
2022-09-12T04:26:19.932Z,60.23
2022-09-12T04:28:23.304Z,60.54
2022-09-12T04:30:25.655Z,60.46
2022-09-12T04:32:30.275Z,60.53
2022-09-12T04:34:32.788Z,60.53
2022-09-12T04:36:35.127Z,60.56
2022-09-12T04:38:37.817Z,60.89
2022-09-12T04:40:40.329Z,60.66
2022-09-12T04:42:42.565Z,61.21
2022-09-12T04:44:45.761Z,60.68
2022-09-12T04:46:50.450Z,60.95
2022-09-12T04:48:56.638Z,60.96
2022-09-12T04:51:11.505Z,60.24
2022-09-12T04:53:14.111Z,60.77
2022-09-12T04:55:16.599Z,60.89
2022-09-12T04:57:18.875Z,61.26
2022-09-12T04:59:22.302Z,61.28
2022-09-12T05:01:25.241Z,61.32
2022-09-12T05:03:28.790Z,60.95
2022-09-12T05:05:31.241Z,61.15
2022-09-12T05:07:34.007Z,61.12
2022-09-12T05:09:36.379Z,61.26
2022-09-12T05:14:09.341Z,60.94
2022-09-12T05:16:13.790Z,61.08
2022-09-12T05:18:15.747Z,60.43
2022-09-12T05:20:17.634Z,60.81
2022-09-12T05:22:19.430Z,60.46
2022-09-12T05:24:21.116Z,59.20
2022-09-12T05:26:23.584Z,59.51
2022-09-12T05:28:29.576Z,59.68
2022-09-12T05:30:31.357Z,59.29
2022-09-12T05:32:33.231Z,58.96
2022-09-12T05:34:34.947Z,59.08
2022-09-12T05:36:37.263Z,58.45
2022-09-12T05:38:39.296Z,58.10
2022-09-12T05:40:41.050Z,57.76
2022-09-12T05:42:43.001Z,57.14
2022-09-12T05:44:44.736Z,57.63
2022-09-12T05:46:50.466Z,57.12
2022-09-12T05:48:56.468Z,56.73
2022-09-12T05:51:03.875Z,56.37
2022-09-12T05:53:05.709Z,56.69
2022-09-12T05:55:08.074Z,56.32
2022-09-12T05:57:09.822Z,56.76
2022-09-12T05:59:21.220Z,56.28
2022-09-12T06:01:24.217Z,55.98
2022-09-12T06:03:26.285Z,55.70
2022-09-12T06:05:28.088Z,55.83
2022-09-12T06:07:29.850Z,55.84
2022-09-12T06:09:32.753Z,54.50
2022-09-12T06:11:37.350Z,54.81
2022-09-12T06:13:42.733Z,53.81
2022-09-12T06:15:44.499Z,53.74
2022-09-12T06:17:51.392Z,54.53
2022-09-12T06:19:53.587Z,54.35
2022-09-12T06:21:55.446Z,54.98
2022-09-12T06:23:58.966Z,54.78
2022-09-12T06:26:01.537Z,55.01
2022-09-12T06:28:03.425Z,55.05
2022-09-12T06:30:06.999Z,55.13
2022-09-12T06:32:10.541Z,54.65
2022-09-12T06:34:14.680Z,53.70
2022-09-12T06:36:22.611Z,53.55
2022-09-12T06:38:24.368Z,54.34
2022-09-12T06:40:27.591Z,54.69
2022-09-12T06:42:29.273Z,54.40
2022-09-12T06:44:32.135Z,54.32
2022-09-12T06:46:33.996Z,54.35
2022-09-12T06:48:41.041Z,54.39
2022-09-12T06:50:43.773Z,54.26
2022-09-12T06:52:45.785Z,53.86
2022-09-12T06:54:47.923Z,53.55
2022-09-12T06:56:49.659Z,53.86
2022-09-12T06:58:53.217Z,53.66
2022-09-12T07:01:19.340Z,52.54
2022-09-12T07:03:21.242Z,53.06
2022-09-12T07:05:23.546Z,52.83
2022-09-12T07:07:25.318Z,52.62
2022-09-12T07:09:27.168Z,52.79
2022-09-12T07:11:32.145Z,52.04
2022-09-12T07:13:34.051Z,53.09
2022-09-12T07:15:36.516Z,52.94
2022-09-12T07:17:38.249Z,52.48
2022-09-12T07:19:40.108Z,51.64
2022-09-12T07:21:42.202Z,52.02
2022-09-12T07:23:45.569Z,52.33
2022-09-12T07:25:57.163Z,51.94
2022-09-12T07:27:59.302Z,52.23
2022-09-12T07:30:01.601Z,52.17
2022-09-12T07:32:04.254Z,51.51
2022-09-12T07:34:06.926Z,51.03
2022-09-12T07:36:12.559Z,50.54
2022-09-12T07:38:14.383Z,50.77
2022-09-12T07:40:16.199Z,50.46
2022-09-12T07:42:18.074Z,49.74
2022-09-12T07:44:19.797Z,49.75
2022-09-12T07:46:22.493Z,50.23
2022-09-12T07:48:24.825Z,49.89
2022-09-12T07:50:26.858Z,50.11
2022-09-12T07:52:28.621Z,48.89
2022-09-12T07:54:31.913Z,48.99
2022-09-12T07:56:38.691Z,48.93
2022-09-12T07:58:43.207Z,48.46
2022-09-12T08:00:45.981Z,48.49
2022-09-12T08:02:52.486Z,48.48
2022-09-12T08:04:54.420Z,48.91
2022-09-12T08:06:56.234Z,48.02
2022-09-12T08:08:59.685Z,48.33
2022-09-12T08:11:04.004Z,46.78
2022-09-12T08:13:05.817Z,47.37
2022-09-12T08:15:08.651Z,47.31
2022-09-12T08:17:10.412Z,47.45
2022-09-12T08:19:12.158Z,47.80
2022-09-12T08:21:20.981Z,45.85
2022-09-12T08:23:23.656Z,47.49
2022-09-12T08:25:26.066Z,47.77
2022-09-12T08:27:27.822Z,47.00
2022-09-12T08:29:29.555Z,47.63
2022-09-12T08:31:36.776Z,48.60
2022-09-12T08:33:38.887Z,48.69
2022-09-12T08:35:40.730Z,48.33
2022-09-12T08:37:42.506Z,47.60
2022-09-12T08:39:44.749Z,47.28
2022-09-12T08:41:48.772Z,47.82
2022-09-12T08:44:03.053Z,47.26
2022-09-12T08:46:11.172Z,47.31
2022-09-12T08:48:14.429Z,47.70
2022-09-12T08:50:19.869Z,47.45
2022-09-12T08:52:25.809Z,46.95
2022-09-12T08:54:31.170Z,45.25
2022-09-12T08:56:38.255Z,45.44
2022-09-12T08:58:43.348Z,46.46
2022-09-12T09:00:48.103Z,47.04
2022-09-12T09:03:01.878Z,46.35
2022-09-12T09:05:12.162Z,46.65
2022-09-12T09:07:26.049Z,47.35
2022-09-12T09:09:49.122Z,45.22
2022-09-12T09:12:15.035Z,46.57
2022-09-12T09:14:44.645Z,47.16
2022-09-12T09:16:50.002Z,47.05
2022-09-12T09:18:55.089Z,47.90
2022-09-12T09:21:16.718Z,47.24
2022-09-12T09:23:33.790Z,45.82
2022-09-12T09:25:41.631Z,46.17
2022-09-12T09:28:09.443Z,45.51
2022-09-12T09:30:20.227Z,45.79
2022-09-12T09:32:28.383Z,46.50
2022-09-12T09:34:31.663Z,46.13
2022-09-12T09:37:07.731Z,45.60
2022-09-12T09:39:28.713Z,46.24
2022-09-12T09:41:30.432Z,46.85
2022-09-12T09:43:32.437Z,46.74
2022-09-12T09:45:34.220Z,46.23
2022-09-12T09:47:36.000Z,46.27
2022-09-12T09:49:37.838Z,46.63
2022-09-12T09:51:42.367Z,46.67
2022-09-12T09:53:53.288Z,44.71
2022-09-12T09:55:56.943Z,45.62
2022-09-12T09:57:58.674Z,46.16
2022-09-12T10:00:30.523Z,46.08
2022-09-12T10:02:32.712Z,46.43
2022-09-12T10:04:41.559Z,45.62
2022-09-12T10:06:44.342Z,46.41
2022-09-12T10:08:48.686Z,46.33
2022-09-12T10:10:57.470Z,47.60
2022-09-12T10:13:34.152Z,46.51
2022-09-12T10:15:36.659Z,46.82
2022-09-12T10:17:46.559Z,45.80
2022-09-12T10:19:59.876Z,46.80
2022-09-12T10:22:20.223Z,45.50
2022-09-12T10:24:26.726Z,45.47
2022-09-12T10:26:34.170Z,44.90
2022-09-12T10:28:40.039Z,45.55
2022-09-12T10:30:52.733Z,44.49
2022-09-12T10:32:59.617Z,45.24
2022-09-12T10:35:09.216Z,44.84
2022-09-12T10:37:19.958Z,44.93
2022-09-12T10:39:22.537Z,45.37
2022-09-12T10:41:25.134Z,46.25
2022-09-12T10:43:35.003Z,44.41
2022-09-12T10:45:37.921Z,45.19
2022-09-12T10:47:39.758Z,45.36
2022-09-12T10:49:41.571Z,45.32
2022-09-12T10:51:43.313Z,44.75
2022-09-12T10:53:46.825Z,44.76
2022-09-12T10:56:22.915Z,44.43
2022-09-12T10:58:46.733Z,42.81
2022-09-12T11:01:00.828Z,43.42
2022-09-12T11:03:16.516Z,44.36
2022-09-12T11:05:39.002Z,45.80
2022-09-12T11:07:47.341Z,43.51
2022-09-12T11:09:58.664Z,43.21
2022-09-12T11:12:38.468Z,44.12
2022-09-12T11:14:52.669Z,43.53
2022-09-12T11:17:18.583Z,42.25
2022-09-12T11:19:57.742Z,41.96
2022-09-12T11:22:34.410Z,42.63
2022-09-12T11:24:54.079Z,43.25
2022-09-12T11:27:11.465Z,43.37
2022-09-12T11:29:13.456Z,44.14
2022-09-12T11:31:48.004Z,43.54
2022-09-12T11:33:56.708Z,44.47
2022-09-12T11:36:02.839Z,44.03
2022-09-12T11:38:21.213Z,43.95
2022-09-12T11:40:42.224Z,43.60
2022-09-12T11:42:46.172Z,44.08
2022-09-12T11:44:59.351Z,42.73
2022-09-12T11:47:08.615Z,43.52
2022-09-12T11:49:13.670Z,43.81
2022-09-12T11:51:25.765Z,43.22
2022-09-12T11:53:37.048Z,42.69
2022-09-12T11:55:58.673Z,41.72
2022-09-12T11:58:01.025Z,42.77
2022-09-12T12:00:21.917Z,41.77
2022-09-12T12:02:29.935Z,41.61
2022-09-12T12:05:00.024Z,40.99
2022-09-12T12:07:08.033Z,42.19
2022-09-12T12:09:13.656Z,42.21
2022-09-12T12:11:35.930Z,42.29
2022-09-12T12:13:52.081Z,42.13
2022-09-12T12:15:59.730Z,42.83
2022-09-12T12:18:18.750Z,43.07
2022-09-12T12:20:23.702Z,41.67
2022-09-12T12:22:26.365Z,41.37
2022-09-12T12:24:32.419Z,41.15
2022-09-12T12:26:43.293Z,40.54
2022-09-12T12:28:50.959Z,41.21
2022-09-12T12:31:01.019Z,40.51
2022-09-12T12:33:26.036Z,40.00
2022-09-12T12:35:41.902Z,39.19
2022-09-12T12:37:44.024Z,39.64
2022-09-12T12:39:49.423Z,40.85
2022-09-12T12:41:51.800Z,41.09
2022-09-12T12:43:57.967Z,41.79
2022-09-12T12:46:03.216Z,41.81
2022-09-12T12:48:12.048Z,40.88
2022-09-12T12:50:14.189Z,41.28
2022-09-12T12:52:18.052Z,41.10
2022-09-12T12:54:41.409Z,40.97
2022-09-12T12:56:44.450Z,41.51
2022-09-12T12:58:46.630Z,41.34
2022-09-12T13:01:13.689Z,41.29
2022-09-12T13:03:31.313Z,41.53
2022-09-12T13:05:44.327Z,41.50
2022-09-12T13:07:48.346Z,42.16
2022-09-12T13:09:53.133Z,41.72
2022-09-12T13:12:05.626Z,42.19
2022-09-12T13:14:42.925Z,41.64
2022-09-12T13:16:59.125Z,41.51
2022-09-12T13:19:17.959Z,41.47
2022-09-12T13:21:22.516Z,41.88
2022-09-12T13:23:30.576Z,41.78
2022-09-12T13:25:37.303Z,41.86
2022-09-12T13:27:39.684Z,41.68
2022-09-12T13:29:42.371Z,41.55
2022-09-12T13:31:47.586Z,40.87
2022-09-12T13:33:52.244Z,41.43
2022-09-12T13:36:05.305Z,39.51
2022-09-12T13:38:36.039Z,39.50
2022-09-12T13:41:06.095Z,40.14
2022-09-12T13:43:17.076Z,40.25
2022-09-12T13:45:22.029Z,40.87
2022-09-12T13:47:37.176Z,40.15
2022-09-12T13:49:41.122Z,40.96
2022-09-12T13:51:43.806Z,40.98
2022-09-12T13:53:48.293Z,40.44
2022-09-12T13:55:57.345Z,40.36
2022-09-12T13:58:02.541Z,40.72
2022-09-12T14:00:25.080Z,40.66
2022-09-12T14:02:29.898Z,40.44
2022-09-12T14:04:50.740Z,40.81
2022-09-12T14:06:53.338Z,40.52
2022-09-12T14:09:01.569Z,40.62
2022-09-12T14:11:10.086Z,40.05
2022-09-12T14:13:18.323Z,40.43
2022-09-12T14:15:27.191Z,40.89
2022-09-12T14:17:36.364Z,40.87
2022-09-12T14:19:38.931Z,41.08
2022-09-12T14:21:41.525Z,41.26
2022-09-12T14:23:48.239Z,40.93
2022-09-12T14:25:52.245Z,41.00
2022-09-12T14:27:56.578Z,40.64
2022-09-12T14:30:25.488Z,40.54
2022-09-12T14:32:27.932Z,40.84
2022-09-12T14:34:30.242Z,40.99
2022-09-12T14:36:40.311Z,40.70
2022-09-12T14:38:49.630Z,40.93
2022-09-12T14:40:59.887Z,41.05
2022-09-12T14:43:03.249Z,41.23
2022-09-12T14:45:18.210Z,41.01
2022-09-12T14:47:25.351Z,41.16
2022-09-12T14:49:35.214Z,41.26
2022-09-12T14:51:47.125Z,41.36
2022-09-12T14:53:52.026Z,41.47
2022-09-12T14:56:12.212Z,41.23
2022-09-12T14:58:26.648Z,41.20
2022-09-12T15:00:29.054Z,41.32
2022-09-12T15:02:31.130Z,41.17
2022-09-12T15:04:44.521Z,41.02
2022-09-12T15:06:46.798Z,41.18
2022-09-12T15:08:49.377Z,41.13
2022-09-12T15:10:51.633Z,41.41
2022-09-12T15:13:09.426Z,41.15
2022-09-12T15:15:18.792Z,41.04
2022-09-12T15:17:20.881Z,41.53
2022-09-12T15:19:23.211Z,41.26
2022-09-12T15:21:25.609Z,41.52
2022-09-12T15:23:40.497Z,41.31
2022-09-12T15:25:42.568Z,41.73
2022-09-12T15:27:50.583Z,42.09
2022-09-12T15:29:53.553Z,42.20
2022-09-12T15:31:55.672Z,42.07
2022-09-12T15:34:00.572Z,41.50
2022-09-12T15:36:14.011Z,41.71
2022-09-12T15:38:16.865Z,42.11
2022-09-12T15:40:20.325Z,42.20
2022-09-12T15:42:30.021Z,41.78
2022-09-12T15:44:32.285Z,42.45
2022-09-12T15:46:34.507Z,42.69
2022-09-12T15:48:36.582Z,42.72
2022-09-12T15:50:38.696Z,42.45
2022-09-12T15:52:41.679Z,43.03
2022-09-12T15:54:44.425Z,43.51
2022-09-12T15:56:47.141Z,42.83
2022-09-12T15:58:58.816Z,43.76
2022-09-12T16:01:04.368Z,44.27
2022-09-12T16:03:06.570Z,44.63
2022-09-12T16:05:16.512Z,45.00
2022-09-12T16:07:18.973Z,44.14
2022-09-12T16:09:22.575Z,43.63
2022-09-12T16:11:27.437Z,44.24
2022-09-12T16:13:29.784Z,44.24
2022-09-12T16:15:34.906Z,44.59
2022-09-12T16:17:37.118Z,44.80
2022-09-12T16:19:39.246Z,44.78
2022-09-12T16:21:41.129Z,44.18
2022-09-12T16:23:44.471Z,44.39
2022-09-12T16:25:55.896Z,44.74
2022-09-12T16:27:58.175Z,43.74
2022-09-12T16:30:01.016Z,44.85
2022-09-12T16:32:04.162Z,44.72
2022-09-12T16:34:06.785Z,44.80
2022-09-12T16:36:17.750Z,44.39
2022-09-12T16:38:20.932Z,44.03
2022-09-12T16:40:23.973Z,43.97
2022-09-12T16:42:26.591Z,44.10
2022-09-12T16:44:29.183Z,44.14
2022-09-12T16:46:31.751Z,43.78
2022-09-12T16:48:34.407Z,43.54
2022-09-12T16:50:37.817Z,44.42
2022-09-12T16:52:40.210Z,43.50
2022-09-12T16:54:44.300Z,44.12
2022-09-12T16:56:47.190Z,44.35
2022-09-12T16:58:52.150Z,44.26
2022-09-12T17:01:03.037Z,44.88
2022-09-12T17:03:05.019Z,44.12
2022-09-12T17:05:07.477Z,44.62
2022-09-12T17:07:10.056Z,44.83
2022-09-12T17:09:13.150Z,44.39
2022-09-12T17:11:17.936Z,45.05
2022-09-12T17:13:19.643Z,44.97
2022-09-12T17:15:21.600Z,44.39
2022-09-12T17:17:23.352Z,45.09
2022-09-12T17:19:28.209Z,45.04
2022-09-12T17:21:30.153Z,45.63
2022-09-12T17:23:32.749Z,45.28
2022-09-12T17:25:34.451Z,45.17
2022-09-12T17:27:36.187Z,46.32
2022-09-12T17:29:38.760Z,45.61
2022-09-12T17:31:41.679Z,45.95
2022-09-12T17:33:43.708Z,46.59
2022-09-12T17:35:45.640Z,46.77
2022-09-12T17:37:47.316Z,47.15
2022-09-12T17:39:49.648Z,46.67
2022-09-12T17:41:51.981Z,46.43
2022-09-12T17:43:58.033Z,47.19
2022-09-12T17:45:59.719Z,46.58
2022-09-12T17:48:02.105Z,46.75
2022-09-12T17:50:30.026Z,47.03
2022-09-12T17:52:25.735Z,47.38
2022-09-12T17:54:27.834Z,48.92
2022-09-12T17:56:31.635Z,48.37
2022-09-12T17:58:34.433Z,46.81
2022-09-12T18:00:54.822Z,46.31
2022-09-12T18:02:57.554Z,46.90
2022-09-12T18:04:59.531Z,47.25
2022-09-12T18:07:01.831Z,46.46
2022-09-12T18:09:06.539Z,46.23
2022-09-12T18:11:08.533Z,46.47
2022-09-12T18:13:12.169Z,46.69
2022-09-12T18:15:14.011Z,46.55
2022-09-12T18:17:16.273Z,46.39
2022-09-12T18:19:18.373Z,46.26
2022-09-12T18:21:20.089Z,46.54
2022-09-12T18:23:22.393Z,46.33
2022-09-12T18:25:24.391Z,45.93
2022-09-12T18:27:26.113Z,46.14
2022-09-12T18:29:28.330Z,45.11
2022-09-12T18:31:30.504Z,44.39
2022-09-12T18:33:33.989Z,44.54
2022-09-12T18:35:38.218Z,44.48
2022-09-12T18:37:42.934Z,44.44
2022-09-12T18:39:44.906Z,44.11
2022-09-12T18:41:46.750Z,43.64
2022-09-12T18:43:49.871Z,43.63
2022-09-12T18:45:51.893Z,43.39
2022-09-12T18:47:53.525Z,43.12
2022-09-12T18:49:55.285Z,42.92
2022-09-12T18:51:57.085Z,43.55
2022-09-12T18:54:06.134Z,43.52
2022-09-12T18:56:11.533Z,43.15
2022-09-12T18:58:13.234Z,43.29
2022-09-12T19:00:15.197Z,43.05
2022-09-12T19:02:16.989Z,43.15
2022-09-12T19:04:18.694Z,43.21
2022-09-12T19:06:26.224Z,42.72
2022-09-12T19:08:28.361Z,43.13
2022-09-12T19:10:35.488Z,43.37
2022-09-12T19:12:37.533Z,42.67
2022-09-12T19:14:39.615Z,42.91
2022-09-12T19:16:41.789Z,42.72
2022-09-12T19:18:44.350Z,42.83
2022-09-12T19:20:51.501Z,42.33
2022-09-12T19:22:53.568Z,42.80
2022-09-12T19:24:55.393Z,42.77
2022-09-12T19:26:57.442Z,42.50
2022-09-12T19:29:00.174Z,42.72
2022-09-12T19:31:06.644Z,42.67
2022-09-12T19:33:08.966Z,42.69
2022-09-12T19:35:13.012Z,42.51
2022-09-12T19:37:14.862Z,42.10
2022-09-12T19:39:19.708Z,42.59
2022-09-12T19:41:21.808Z,42.66
2022-09-12T19:43:23.924Z,42.44
2022-09-12T19:45:25.797Z,42.33
2022-09-12T19:47:27.696Z,42.76
2022-09-12T19:49:29.639Z,43.16
2022-09-12T19:51:31.554Z,43.32
2022-09-12T19:53:33.766Z,43.63
2022-09-12T19:55:36.559Z,43.34
2022-09-12T19:57:38.437Z,43.43
2022-09-12T19:59:40.373Z,43.43
2022-09-12T20:01:42.215Z,43.63
2022-09-12T20:03:44.954Z,43.43
2022-09-12T20:05:46.829Z,43.32
2022-09-12T20:07:48.673Z,43.35
2022-09-12T20:09:50.481Z,43.40
2022-09-12T20:11:52.363Z,43.85
2022-09-12T20:13:54.349Z,43.55
2022-09-12T20:15:56.378Z,43.61
2022-09-12T20:17:58.847Z,43.99
2022-09-12T20:20:00.858Z,42.94
2022-09-12T20:22:03.434Z,43.17
2022-09-12T20:24:08.378Z,43.14
2022-09-12T20:26:10.982Z,43.47
2022-09-12T20:28:12.748Z,43.64
2022-09-12T20:30:15.634Z,43.27
2022-09-12T20:32:18.373Z,43.31
2022-09-12T20:34:21.539Z,43.69
2022-09-12T20:36:25.196Z,43.31
2022-09-12T20:38:27.013Z,43.55
2022-09-12T20:40:28.890Z,43.36
2022-09-12T20:42:30.715Z,43.30
2022-09-12T20:44:32.497Z,43.40
2022-09-12T20:46:34.494Z,43.44
2022-09-12T20:48:37.099Z,43.63
2022-09-12T20:50:38.916Z,43.19
2022-09-12T20:52:40.912Z,43.27
2022-09-12T20:54:42.665Z,43.38
2022-09-12T20:56:44.731Z,43.31
2022-09-12T20:58:46.512Z,43.61
2022-09-12T21:00:48.814Z,43.94
2022-09-12T21:02:51.804Z,43.50
2022-09-12T21:04:54.274Z,43.89
2022-09-12T21:06:56.173Z,43.76
2022-09-12T21:09:00.976Z,43.92
2022-09-12T21:11:03.914Z,43.77
2022-09-12T21:13:05.914Z,43.67
2022-09-12T21:15:08.362Z,44.13
2022-09-12T21:17:10.330Z,44.03
2022-09-12T21:19:12.157Z,44.16
2022-09-12T21:21:16.338Z,44.57
2022-09-12T21:23:18.340Z,44.29
2022-09-12T21:25:20.319Z,44.59
2022-09-12T21:27:22.203Z,44.27
2022-09-12T21:29:24.612Z,44.31
2022-09-12T21:31:26.729Z,44.20
2022-09-12T21:33:28.963Z,44.33
2022-09-12T21:35:31.058Z,44.64
2022-09-12T21:37:33.322Z,44.71
2022-09-12T21:39:35.470Z,44.71
2022-09-12T21:41:37.512Z,45.03
2022-09-12T21:43:40.627Z,44.94
2022-09-12T21:45:42.576Z,45.09
2022-09-12T21:47:45.099Z,45.25
2022-09-12T21:49:47.118Z,45.02
2022-09-12T21:51:49.124Z,45.24
2022-09-12T21:53:51.096Z,44.99
2022-09-12T21:55:53.503Z,45.03
2022-09-12T21:57:55.811Z,45.37
2022-09-12T21:59:58.155Z,45.90
2022-09-12T22:02:00.522Z,45.83
2022-09-12T22:04:02.587Z,45.48
2022-09-12T22:06:06.395Z,45.29
2022-09-12T22:08:08.397Z,45.49
2022-09-12T22:10:10.910Z,45.72
2022-09-12T22:12:12.738Z,45.41
2022-09-12T22:14:15.154Z,45.42
2022-09-12T22:16:17.835Z,45.33
2022-09-12T22:18:19.873Z,46.18
2022-09-12T22:20:21.823Z,45.79
2022-09-12T22:22:42.194Z,45.83
2022-09-12T22:24:44.291Z,45.40
2022-09-12T22:26:46.502Z,45.78
2022-09-12T22:28:49.349Z,46.28
2022-09-12T22:30:51.581Z,45.55
2022-09-12T22:32:53.476Z,46.18
2022-09-12T22:34:55.729Z,46.13
2022-09-12T22:36:57.721Z,46.64
2022-09-12T22:39:00.329Z,46.51
2022-09-12T22:41:09.838Z,46.34
2022-09-12T22:43:11.904Z,46.82
2022-09-12T22:45:13.970Z,47.08
2022-09-12T22:47:15.944Z,47.12
2022-09-12T22:49:17.856Z,46.61
2022-09-12T22:51:19.909Z,46.52
2022-09-12T22:53:21.802Z,46.60
2022-09-12T22:55:23.883Z,46.52
2022-09-12T22:57:26.108Z,47.04
2022-09-12T22:59:28.157Z,46.56
2022-09-12T23:01:31.975Z,47.21
2022-09-12T23:03:34.559Z,46.53
2022-09-12T23:05:37.107Z,46.98
2022-09-12T23:07:38.986Z,46.94
2022-09-12T23:09:40.983Z,47.34
2022-09-12T23:11:42.847Z,47.61
2022-09-12T23:13:47.965Z,47.34
2022-09-12T23:15:57.730Z,48.83
2022-09-12T23:18:00.031Z,48.27
2022-09-12T23:20:02.197Z,48.14
2022-09-12T23:22:04.576Z,48.07
2022-09-12T23:24:06.709Z,48.07
2022-09-12T23:26:12.767Z,48.91
2022-09-12T23:28:14.824Z,49.15
2022-09-12T23:30:21.359Z,48.95
2022-09-12T23:32:23.216Z,49.21
2022-09-12T23:34:25.032Z,48.69
2022-09-12T23:36:27.375Z,48.72
2022-09-12T23:38:31.034Z,48.73
2022-09-12T23:40:32.856Z,48.36
2022-09-12T23:42:34.682Z,48.55
2022-09-12T23:44:36.873Z,49.19
2022-09-12T23:46:38.768Z,48.61
2022-09-12T23:48:41.031Z,48.56
2022-09-12T23:50:47.662Z,49.02
2022-09-12T23:52:49.623Z,48.74
2022-09-12T23:54:51.621Z,49.00
2022-09-12T23:56:53.861Z,48.82
2022-09-12T23:58:55.995Z,48.92
